createdAt,value
2023-10-16T00:01:11.873Z,50187.63
2023-10-16T00:03:43.760Z,50179.63
2023-10-16T00:06:13.133Z,50176.43
2023-10-16T00:08:50.421Z,50186.83
2023-10-16T00:11:26.079Z,50202.82
2023-10-16T00:13:58.251Z,50194.43
2023-10-16T00:16:30.260Z,50190.03
2023-10-16T00:19:00.672Z,50202.43
2023-10-16T00:21:31.747Z,50205.22
2023-10-16T00:24:00.207Z,50211.62
2023-10-16T00:26:31.667Z,50228.82
2023-10-16T00:29:29.524Z,50195.63
2023-10-16T00:32:00.518Z,50216.82
2023-10-16T00:34:31.239Z,50211.22
2023-10-16T00:36:59.877Z,50211.22
2023-10-16T00:39:30.582Z,50226.81
2023-10-16T00:42:00.219Z,50225.21
2023-10-16T00:44:35.647Z,50234.01
2023-10-16T00:47:05.748Z,50236.41
2023-10-16T00:49:36.389Z,50220.02
2023-10-16T00:52:06.383Z,50235.61
2023-10-16T00:54:43.280Z,50210.02
2023-10-16T00:57:12.127Z,50224.41
2023-10-16T00:59:42.934Z,50225.21
2023-10-16T01:02:17.216Z,50221.61
2023-10-16T01:04:48.365Z,50229.21
2023-10-16T01:07:20.591Z,50230.81
2023-10-16T01:09:49.651Z,50236.81
2023-10-16T01:12:21.941Z,50232.41
2023-10-16T01:14:51.048Z,50216.82
2023-10-16T01:17:31.926Z,50212.82
2023-10-16T01:20:01.121Z,50244.81
2023-10-16T01:22:31.088Z,50235.61
2023-10-16T01:25:02.693Z,50246.41
2023-10-16T01:27:32.097Z,50224.82
2023-10-16T01:30:04.054Z,50234.01
2023-10-16T01:32:33.194Z,50230.81
2023-10-16T01:35:02.625Z,50235.21
2023-10-16T01:37:32.302Z,50239.21
2023-10-16T01:40:39.140Z,50234.82
2023-10-16T01:43:07.407Z,50233.61
2023-10-16T01:45:36.480Z,50229.21
2023-10-16T01:48:06.339Z,50216.42
2023-10-16T01:50:35.344Z,50228.01
2023-10-16T01:53:05.175Z,50226.82
2023-10-16T01:55:33.415Z,50227.61
2023-10-16T01:58:04.388Z,50224.02
2023-10-16T02:00:36.110Z,50229.61
2023-10-16T02:03:10.079Z,50222.81
2023-10-16T02:05:43.196Z,50224.81
2023-10-16T02:08:14.136Z,50224.42
2023-10-16T02:10:43.441Z,50232.41
2023-10-16T02:13:12.295Z,50220.42
2023-10-16T02:15:42.333Z,50236.81
2023-10-16T02:18:20.268Z,50218.82
2023-10-16T02:20:52.391Z,50220.42
2023-10-16T02:23:22.246Z,50219.21
2023-10-16T02:25:50.908Z,50232.41
2023-10-16T02:28:21.043Z,50238.41
2023-10-16T02:30:50.871Z,50229.21
2023-10-16T02:33:19.418Z,50228.01
2023-10-16T02:35:51.516Z,50240.41
2023-10-16T02:38:30.670Z,50230.01
2023-10-16T02:41:04.975Z,50242.80
2023-10-16T02:43:35.307Z,50243.61
2023-10-16T02:46:05.276Z,50246.81
2023-10-16T02:48:33.979Z,50245.61
2023-10-16T02:51:04.102Z,50243.61
2023-10-16T02:53:35.091Z,50263.60
2023-10-16T02:56:16.324Z,50234.41
2023-10-16T02:58:45.370Z,50248.01
2023-10-16T03:01:20.235Z,50249.61
2023-10-16T03:03:50.672Z,50258.40
2023-10-16T03:06:22.418Z,50261.21
2023-10-16T03:08:50.899Z,50268.00
2023-10-16T03:11:22.182Z,50233.21
2023-10-16T03:13:57.827Z,50254.01
2023-10-16T03:16:28.435Z,50256.00
2023-10-16T03:19:10.032Z,50252.80
2023-10-16T03:21:41.625Z,50248.80
2023-10-16T03:24:11.325Z,50252.80
2023-10-16T03:26:43.877Z,50258.01
2023-10-16T03:29:13.017Z,50246.41
2023-10-16T03:31:41.783Z,50262.01
2023-10-16T03:34:13.070Z,50250.01
2023-10-16T03:36:43.015Z,50248.80
2023-10-16T03:39:13.146Z,50247.61
2023-10-16T03:41:41.953Z,50249.61
2023-10-16T03:44:18.678Z,50251.61
2023-10-16T03:46:48.330Z,50270.80
2023-10-16T03:49:16.818Z,50271.20
2023-10-16T03:51:49.735Z,50263.20
2023-10-16T03:54:29.618Z,50265.60
2023-10-16T03:57:01.468Z,50270.00
2023-10-16T03:59:34.089Z,50273.60
2023-10-16T04:02:05.865Z,50268.00
2023-10-16T04:04:35.500Z,50273.20
2023-10-16T04:07:04.895Z,50270.40
2023-10-16T04:09:40.217Z,50265.60
2023-10-16T04:12:18.525Z,50271.60
2023-10-16T04:14:51.394Z,50280.40
2023-10-16T04:17:19.755Z,50279.60
2023-10-16T04:19:54.609Z,50280.40
2023-10-16T04:22:26.545Z,50280.79
2023-10-16T04:25:01.302Z,50280.79
2023-10-16T04:27:35.366Z,50273.60
2023-10-16T04:30:22.573Z,50272.40
2023-10-16T04:33:09.853Z,50282.40
2023-10-16T04:35:41.215Z,50273.60
2023-10-16T04:38:28.993Z,50280.00
2023-10-16T04:41:15.990Z,50287.20
2023-10-16T04:44:12.990Z,50281.20
2023-10-16T04:46:57.266Z,50272.40
2023-10-16T04:49:30.538Z,50279.60
2023-10-16T04:52:08.653Z,50271.20
2023-10-16T04:54:56.884Z,50294.39
2023-10-16T04:57:25.424Z,50288.79
2023-10-16T05:00:02.751Z,50291.99
2023-10-16T05:02:53.486Z,50293.99
2023-10-16T05:05:33.910Z,50268.00
2023-10-16T05:08:32.884Z,50284.39
2023-10-16T05:11:21.781Z,50289.60
2023-10-16T05:14:16.885Z,50279.20
2023-10-16T05:17:05.889Z,50289.99
2023-10-16T05:19:59.458Z,50293.19
2023-10-16T05:22:47.288Z,50281.99
2023-10-16T05:25:34.327Z,50266.80
2023-10-16T05:28:22.225Z,50279.20
2023-10-16T05:31:10.077Z,50294.79
2023-10-16T05:33:57.134Z,50280.00
2023-10-16T05:36:44.767Z,50287.20
2023-10-16T05:39:31.748Z,50287.59
2023-10-16T05:42:18.911Z,50277.20
2023-10-16T05:45:06.037Z,50285.59
2023-10-16T05:47:53.157Z,50301.99
2023-10-16T05:50:41.011Z,50292.39
2023-10-16T05:53:28.166Z,50319.59
2023-10-16T05:56:15.314Z,50301.99
2023-10-16T05:59:02.195Z,50275.60
2023-10-16T06:01:49.317Z,50278.40
2023-10-16T06:04:36.215Z,50281.99
2023-10-16T06:07:23.487Z,50293.59
2023-10-16T06:10:21.052Z,50286.00
2023-10-16T06:13:08.267Z,50299.19
2023-10-16T06:15:39.008Z,50278.80
2023-10-16T06:18:08.948Z,50283.60
2023-10-16T06:20:44.583Z,50277.60
2023-10-16T06:23:12.876Z,50284.80
2023-10-16T06:25:41.105Z,50273.60
2023-10-16T06:28:15.199Z,50278.40
2023-10-16T06:30:44.606Z,50266.80
2023-10-16T06:33:16.151Z,50284.39
2023-10-16T06:35:45.322Z,50273.20
2023-10-16T06:38:16.027Z,50278.00
2023-10-16T06:40:45.723Z,50272.40
2023-10-16T06:43:15.839Z,50276.40
2023-10-16T06:45:57.089Z,50270.80
2023-10-16T06:48:29.699Z,50270.00
2023-10-16T06:51:05.618Z,50278.40
2023-10-16T06:53:35.852Z,50267.60
2023-10-16T06:56:07.464Z,50285.99
2023-10-16T06:58:35.945Z,50285.20
2023-10-16T07:01:07.456Z,50279.60
2023-10-16T07:03:41.121Z,50270.40
2023-10-16T07:06:10.411Z,50272.40
2023-10-16T07:08:40.287Z,50268.00
2023-10-16T07:11:12.825Z,50293.19
2023-10-16T07:13:42.135Z,50268.80
2023-10-16T07:16:10.992Z,50270.00
2023-10-16T07:18:44.092Z,50262.80
2023-10-16T07:21:19.546Z,50284.80
2023-10-16T07:23:48.662Z,50268.80
2023-10-16T07:26:20.539Z,50275.20
2023-10-16T07:28:51.954Z,50274.80
2023-10-16T07:31:21.107Z,50275.60
2023-10-16T07:33:52.158Z,50270.80
2023-10-16T07:36:20.621Z,50285.59
2023-10-16T07:38:51.722Z,50279.20
2023-10-16T07:41:20.499Z,50260.01
2023-10-16T07:43:51.990Z,50274.79
2023-10-16T07:46:30.551Z,50267.20
2023-10-16T07:49:11.285Z,50273.20
2023-10-16T07:51:47.391Z,50283.60
2023-10-16T07:54:16.127Z,50262.40
2023-10-16T07:56:45.790Z,50272.00
2023-10-16T07:59:20.339Z,50260.80
2023-10-16T08:02:01.559Z,50259.21
2023-10-16T08:04:38.436Z,50253.61
2023-10-16T08:07:09.691Z,50268.40
2023-10-16T08:09:41.224Z,50249.21
2023-10-16T08:12:36.494Z,50248.41
2023-10-16T08:15:23.586Z,50244.81
2023-10-16T08:17:53.571Z,50256.41
2023-10-16T08:20:30.240Z,50230.81
2023-10-16T08:23:07.106Z,50240.01
2023-10-16T08:25:36.934Z,50251.21
2023-10-16T08:28:26.106Z,50229.61
2023-10-16T08:30:56.197Z,50231.21
2023-10-16T08:33:32.306Z,50226.82
2023-10-16T08:36:01.545Z,50234.01
2023-10-16T08:38:34.685Z,50218.02
2023-10-16T08:41:09.277Z,50222.41
2023-10-16T08:43:55.060Z,50229.21
2023-10-16T08:46:32.537Z,50231.21
2023-10-16T08:49:04.015Z,50223.21
2023-10-16T08:51:33.212Z,50216.42
2023-10-16T08:54:06.866Z,50214.42
2023-10-16T08:56:39.553Z,50216.02
2023-10-16T08:59:08.987Z,50200.82
2023-10-16T09:01:41.391Z,50230.01
2023-10-16T09:04:16.527Z,50215.62
2023-10-16T09:06:47.486Z,50198.02
2023-10-16T09:09:17.874Z,50196.82
2023-10-16T09:11:48.915Z,50200.02
2023-10-16T09:14:19.689Z,50195.63
2023-10-16T09:16:56.831Z,50202.42
2023-10-16T09:19:35.807Z,50211.62
2023-10-16T09:22:10.839Z,50205.22
2023-10-16T09:24:40.408Z,50210.42
2023-10-16T09:27:35.347Z,50196.02
2023-10-16T09:30:16.247Z,50196.42
2023-10-16T09:32:44.811Z,50180.43
2023-10-16T09:35:13.976Z,50179.23
2023-10-16T09:37:49.227Z,50189.23
2023-10-16T09:40:28.083Z,50184.43
2023-10-16T09:43:10.018Z,50158.45
2023-10-16T09:45:41.027Z,50181.23
2023-10-16T09:48:21.059Z,50189.63
2023-10-16T09:50:53.906Z,50170.83
2023-10-16T09:53:22.353Z,50180.03
2023-10-16T09:55:59.741Z,50178.43
2023-10-16T09:58:33.452Z,50166.44
2023-10-16T10:01:14.581Z,50178.03
2023-10-16T10:03:43.704Z,50181.63
2023-10-16T10:06:22.429Z,50186.83
2023-10-16T10:09:00.796Z,50186.03
2023-10-16T10:11:39.919Z,50180.43
2023-10-16T10:14:41.652Z,50178.03
2023-10-16T10:17:21.224Z,50177.63
2023-10-16T10:20:00.276Z,50168.04
2023-10-16T10:22:37.033Z,50186.43
2023-10-16T10:25:24.186Z,50179.63
2023-10-16T10:27:57.172Z,50178.83
2023-10-16T10:30:28.425Z,50165.24
2023-10-16T10:33:00.819Z,50196.43
2023-10-16T10:35:31.122Z,50177.63
2023-10-16T10:38:18.908Z,50192.03
2023-10-16T10:41:06.051Z,50188.82
2023-10-16T10:43:49.803Z,50184.83
2023-10-16T10:46:27.891Z,50185.23
2023-10-16T10:48:58.674Z,50194.02
2023-10-16T10:51:37.003Z,50194.43
2023-10-16T10:54:07.654Z,50192.43
2023-10-16T10:56:49.602Z,50189.23
2023-10-16T10:59:43.298Z,50188.43
2023-10-16T11:02:19.288Z,50195.63
2023-10-16T11:04:55.241Z,50190.03
2023-10-16T11:07:30.728Z,50161.24
2023-10-16T11:09:59.322Z,50168.04
2023-10-16T11:12:28.168Z,50180.83
2023-10-16T11:14:58.657Z,50191.63
2023-10-16T11:17:37.344Z,50180.83
2023-10-16T11:20:32.800Z,50201.22
2023-10-16T11:23:02.247Z,50184.03
2023-10-16T11:25:30.907Z,50167.63
2023-10-16T11:28:08.468Z,50164.84
2023-10-16T11:30:40.448Z,50180.83
2023-10-16T11:33:10.684Z,50179.23
2023-10-16T11:35:43.818Z,50174.04
2023-10-16T11:38:20.981Z,50163.63
2023-10-16T11:40:51.861Z,50153.24
2023-10-16T11:43:20.791Z,50178.43
2023-10-16T11:45:55.358Z,50163.63
2023-10-16T11:48:25.796Z,50180.03
2023-10-16T11:51:31.797Z,50162.84
2023-10-16T11:54:02.323Z,50176.83
2023-10-16T11:56:36.158Z,50160.84
2023-10-16T11:59:11.123Z,50167.63
2023-10-16T12:01:50.729Z,50163.24
2023-10-16T12:04:28.403Z,50144.84
2023-10-16T12:06:59.414Z,50161.24
2023-10-16T12:09:38.493Z,50167.24
2023-10-16T12:12:08.921Z,50148.44
2023-10-16T12:14:40.270Z,50159.64
2023-10-16T12:17:13.497Z,50149.24
2023-10-16T12:19:42.853Z,50154.84
2023-10-16T12:22:11.685Z,50158.04
2023-10-16T12:24:41.165Z,50141.24
2023-10-16T12:27:12.054Z,50160.44
2023-10-16T12:29:43.049Z,50143.64
2023-10-16T12:32:14.736Z,50142.45
2023-10-16T12:34:43.484Z,50154.44
2023-10-16T12:37:12.832Z,50157.24
2023-10-16T12:39:48.867Z,50162.84
2023-10-16T12:42:17.567Z,50159.24
2023-10-16T12:44:46.350Z,50164.04
2023-10-16T12:47:27.642Z,50162.84
2023-10-16T12:50:00.979Z,50159.64
2023-10-16T12:52:31.390Z,50149.24
2023-10-16T12:55:02.790Z,50155.64
2023-10-16T12:57:31.575Z,50154.84
2023-10-16T13:00:01.414Z,50150.04
2023-10-16T13:02:31.771Z,50151.64
2023-10-16T13:05:03.666Z,50155.64
2023-10-16T13:07:42.238Z,50160.84
2023-10-16T13:10:21.447Z,50160.84
2023-10-16T13:12:49.752Z,50148.45
2023-10-16T13:15:32.540Z,50149.64
2023-10-16T13:18:02.288Z,50157.64
2023-10-16T13:20:30.680Z,50142.05
2023-10-16T13:22:59.369Z,50164.44
2023-10-16T13:25:36.513Z,50162.04
2023-10-16T13:28:08.793Z,50162.44
2023-10-16T13:30:37.768Z,50164.44
2023-10-16T13:33:10.357Z,50152.44
2023-10-16T13:35:42.173Z,50158.44
2023-10-16T13:38:11.023Z,50137.64
2023-10-16T13:40:40.158Z,50156.04
2023-10-16T13:43:12.506Z,50145.24
2023-10-16T13:45:41.901Z,50155.64
2023-10-16T13:48:11.718Z,50152.44
2023-10-16T13:50:42.288Z,50143.24
2023-10-16T13:53:13.550Z,50139.64
2023-10-16T13:55:43.025Z,50142.84
2023-10-16T13:58:11.971Z,50156.44
2023-10-16T14:00:40.503Z,50145.64
2023-10-16T14:03:10.565Z,50150.45
2023-10-16T14:05:52.338Z,50152.04
2023-10-16T14:08:37.008Z,50168.84
2023-10-16T14:11:07.719Z,50140.84
2023-10-16T14:13:38.749Z,50164.04
2023-10-16T14:16:19.806Z,50152.84
2023-10-16T14:18:50.367Z,50147.64
2023-10-16T14:21:19.341Z,50146.45
2023-10-16T14:23:47.682Z,50154.04
2023-10-16T14:26:35.431Z,50169.23
2023-10-16T14:29:05.217Z,50165.24
2023-10-16T14:31:35.242Z,50160.84
2023-10-16T14:34:07.219Z,50147.64
2023-10-16T14:36:42.875Z,50167.23
2023-10-16T14:39:12.741Z,50160.44
2023-10-16T14:41:42.803Z,50158.04
2023-10-16T14:44:23.483Z,50154.84
2023-10-16T14:46:53.346Z,50138.84
2023-10-16T14:49:26.722Z,50148.84
2023-10-16T14:51:55.488Z,50163.24
2023-10-16T14:54:24.535Z,50148.04
2023-10-16T14:56:53.698Z,50150.84
2023-10-16T14:59:35.470Z,50164.83
2023-10-16T15:02:04.770Z,50156.04
2023-10-16T15:04:36.966Z,50163.64
2023-10-16T15:07:09.849Z,50161.64
2023-10-16T15:09:38.773Z,50154.44
2023-10-16T15:12:08.554Z,50155.64
2023-10-16T15:14:37.144Z,50172.83
2023-10-16T15:17:06.824Z,50168.04
2023-10-16T15:19:40.369Z,50177.63
2023-10-16T15:22:09.173Z,50177.23
2023-10-16T15:24:38.628Z,50186.43
2023-10-16T15:27:07.662Z,50178.83
2023-10-16T15:29:36.346Z,50158.04
2023-10-16T15:32:09.432Z,50174.43
2023-10-16T15:34:37.845Z,50168.04
2023-10-16T15:37:10.844Z,50184.03
2023-10-16T15:39:40.692Z,50185.23
2023-10-16T15:42:09.565Z,50184.03
2023-10-16T15:44:37.846Z,50195.63
2023-10-16T15:47:08.618Z,50183.63
2023-10-16T15:49:37.858Z,50184.83
2023-10-16T15:52:07.275Z,50193.23
2023-10-16T15:54:35.785Z,50193.23
2023-10-16T15:57:04.098Z,50207.62
2023-10-16T15:59:35.679Z,50199.23
2023-10-16T16:02:07.741Z,50180.83
2023-10-16T16:04:36.253Z,50177.23
2023-10-16T16:07:05.599Z,50208.82
2023-10-16T16:09:37.209Z,50208.42
2023-10-16T16:12:09.683Z,50191.63
2023-10-16T16:14:45.628Z,50174.03
2023-10-16T16:17:13.974Z,50206.02
2023-10-16T16:19:42.420Z,50195.23
2023-10-16T16:22:12.420Z,50200.43
2023-10-16T16:24:41.901Z,50184.03
2023-10-16T16:27:10.896Z,50200.02
2023-10-16T16:29:39.376Z,50198.42
2023-10-16T16:32:08.876Z,50188.03
2023-10-16T16:34:44.027Z,50187.63
2023-10-16T16:37:13.494Z,50168.43
2023-10-16T16:39:42.018Z,50195.63
2023-10-16T16:42:15.902Z,50205.62
2023-10-16T16:44:44.612Z,50190.83
2023-10-16T16:47:13.109Z,50196.43
2023-10-16T16:49:41.711Z,50197.63
2023-10-16T16:52:12.230Z,50193.63
2023-10-16T16:54:40.757Z,50190.02
2023-10-16T16:57:11.449Z,50188.82
2023-10-16T16:59:43.784Z,50195.23
2023-10-16T17:02:15.572Z,50196.43
2023-10-16T17:04:44.014Z,50190.43
2023-10-16T17:07:15.147Z,50198.82
2023-10-16T17:09:43.851Z,50198.03
2023-10-16T17:12:13.268Z,50192.43
2023-10-16T17:14:41.671Z,50205.22
2023-10-16T17:17:10.935Z,50197.63
2023-10-16T17:19:39.636Z,50204.42
2023-10-16T17:22:11.567Z,50190.03
2023-10-16T17:24:39.891Z,50202.82
2023-10-16T17:27:09.145Z,50207.62
2023-10-16T17:29:37.720Z,50202.82
2023-10-16T17:32:06.435Z,50212.41
2023-10-16T17:34:35.512Z,50196.02
2023-10-16T17:37:07.896Z,50214.82
2023-10-16T17:39:36.676Z,50203.23
2023-10-16T17:42:05.269Z,50210.82
2023-10-16T17:44:35.533Z,50213.62
2023-10-16T17:47:03.911Z,50200.42
2023-10-16T17:49:36.829Z,50214.82
2023-10-16T17:52:05.282Z,50203.62
2023-10-16T17:54:33.928Z,50218.42
2023-10-16T17:57:04.910Z,50214.42
2023-10-16T17:59:35.950Z,50224.01
2023-10-16T18:02:06.100Z,50218.81
2023-10-16T18:04:34.462Z,50219.22
2023-10-16T18:07:08.178Z,50204.42
2023-10-16T18:09:36.555Z,50212.82
2023-10-16T18:12:09.271Z,50227.21
2023-10-16T18:14:40.611Z,50229.21
2023-10-16T18:17:13.831Z,50206.42
2023-10-16T18:19:42.333Z,50227.21
2023-10-16T18:22:13.628Z,50216.82
2023-10-16T18:24:46.002Z,50218.82
2023-10-16T18:27:15.788Z,50226.82
2023-10-16T18:29:47.707Z,50220.02
2023-10-16T18:32:18.588Z,50214.42
2023-10-16T18:34:47.923Z,50220.82
2023-10-16T18:37:17.906Z,50234.80
2023-10-16T18:39:46.405Z,50227.21
2023-10-16T18:42:16.763Z,50209.62
2023-10-16T18:44:47.745Z,50234.82
2023-10-16T18:47:18.951Z,50217.62
2023-10-16T18:49:49.137Z,50227.62
2023-10-16T18:52:17.453Z,50218.02
2023-10-16T18:54:45.977Z,50230.41
2023-10-16T18:57:16.314Z,50237.61
2023-10-16T18:59:44.685Z,50226.01
2023-10-16T19:02:13.356Z,50241.21
2023-10-16T19:04:42.173Z,50236.01
2023-10-16T19:07:10.405Z,50244.01
2023-10-16T19:09:41.088Z,50255.21
2023-10-16T19:12:09.781Z,50235.61
2023-10-16T19:14:38.258Z,50243.61
2023-10-16T19:17:07.876Z,50234.01
2023-10-16T19:19:36.213Z,50241.61
2023-10-16T19:22:07.460Z,50226.02
2023-10-16T19:24:36.745Z,50234.01
2023-10-16T19:27:05.600Z,50222.41
2023-10-16T19:29:33.925Z,50246.41
2023-10-16T19:32:03.255Z,50241.61
2023-10-16T19:34:31.581Z,50224.82
2023-10-16T19:37:03.144Z,50225.62
2023-10-16T19:39:32.054Z,50244.80
2023-10-16T19:42:00.886Z,50231.61
2023-10-16T19:44:29.331Z,50244.41
2023-10-16T19:47:00.373Z,50242.41
2023-10-16T19:49:31.229Z,50226.82
2023-10-16T19:52:02.447Z,50228.01
2023-10-16T19:54:30.769Z,50240.81
2023-10-16T19:56:59.442Z,50235.61
2023-10-16T19:59:34.949Z,50233.61
2023-10-16T20:02:03.196Z,50239.61
2023-10-16T20:04:32.087Z,50248.80
2023-10-16T20:07:01.423Z,50217.62
2023-10-16T20:09:31.628Z,50238.80
2023-10-16T20:12:12.466Z,50220.82
2023-10-16T20:14:47.002Z,50238.41
2023-10-16T20:17:15.279Z,50236.81
2023-10-16T20:19:45.202Z,50255.21
2023-10-16T20:22:17.437Z,50236.01
2023-10-16T20:24:48.002Z,50256.01
2023-10-16T20:27:17.047Z,50243.21
2023-10-16T20:29:45.382Z,50250.80
2023-10-16T20:32:16.687Z,50240.41
2023-10-16T20:34:47.688Z,50250.80
2023-10-16T20:37:17.791Z,50232.41
2023-10-16T20:39:50.852Z,50254.01
2023-10-16T20:42:20.110Z,50244.80
2023-10-16T20:44:48.438Z,50249.61
2023-10-16T20:47:17.010Z,50238.41
2023-10-16T20:49:45.908Z,50248.01
2023-10-16T20:52:15.942Z,50244.81
2023-10-16T20:54:44.310Z,50251.61
2023-10-16T20:57:13.078Z,50262.01
2023-10-16T20:59:41.639Z,50259.21
2023-10-16T21:02:09.837Z,50232.41
2023-10-16T21:04:38.357Z,50249.21
2023-10-16T21:07:06.668Z,50247.21
2023-10-16T21:09:35.005Z,50233.21
2023-10-16T21:12:03.396Z,50245.61
2023-10-16T21:14:31.639Z,50252.80
2023-10-16T21:17:00.267Z,50248.80
2023-10-16T21:19:28.580Z,50248.80
2023-10-16T21:21:56.746Z,50246.41
2023-10-16T21:24:25.151Z,50255.20
2023-10-16T21:26:54.417Z,50242.81
2023-10-16T21:29:23.126Z,50253.21
2023-10-16T21:31:53.397Z,50236.81
2023-10-16T21:34:21.449Z,50242.01
2023-10-16T21:36:52.105Z,50258.80
2023-10-16T21:39:22.103Z,50247.61
2023-10-16T21:41:51.086Z,50235.21
2023-10-16T21:44:20.864Z,50254.80
2023-10-16T21:46:49.070Z,50258.01
2023-10-16T21:49:17.398Z,50257.61
2023-10-16T21:51:45.584Z,50269.20
2023-10-16T21:54:13.808Z,50252.41
2023-10-16T21:56:43.038Z,50255.21
2023-10-16T21:59:11.423Z,50251.61
2023-10-16T22:01:39.676Z,50254.01
2023-10-16T22:04:07.999Z,50270.00
2023-10-16T22:06:37.024Z,50260.00
2023-10-16T22:09:11.365Z,50266.00
2023-10-16T22:11:43.695Z,50255.21
2023-10-16T22:14:21.311Z,50241.21
2023-10-16T22:16:52.222Z,50250.01
2023-10-16T22:19:21.008Z,50256.80
2023-10-16T22:21:49.209Z,50259.21
2023-10-16T22:24:20.388Z,50252.41
2023-10-16T22:26:48.658Z,50260.40
2023-10-16T22:29:19.279Z,50246.01
2023-10-16T22:31:47.887Z,50239.21
2023-10-16T22:34:15.988Z,50268.40
2023-10-16T22:36:44.389Z,50252.01
2023-10-16T22:39:13.366Z,50271.60
2023-10-16T22:41:42.451Z,50264.00
2023-10-16T22:44:15.351Z,50260.00
2023-10-16T22:46:49.541Z,50267.20
2023-10-16T22:49:18.748Z,50258.40
2023-10-16T22:51:49.255Z,50271.60
2023-10-16T22:54:17.529Z,50272.40
2023-10-16T22:56:49.987Z,50259.60
2023-10-16T22:59:18.189Z,50268.80
2023-10-16T23:01:46.461Z,50278.00
2023-10-16T23:04:15.304Z,50281.20
2023-10-16T23:06:50.699Z,50265.61
2023-10-16T23:09:31.328Z,50269.60
2023-10-16T23:12:11.254Z,50263.60
2023-10-16T23:14:40.032Z,50285.20
2023-10-16T23:17:18.625Z,50268.40
2023-10-16T23:19:49.013Z,50256.80
2023-10-16T23:22:18.526Z,50258.01
2023-10-16T23:24:46.937Z,50270.80
2023-10-16T23:27:15.244Z,50250.41
2023-10-16T23:29:46.519Z,50260.00
2023-10-16T23:32:14.671Z,50272.80
2023-10-16T23:34:55.455Z,50276.40
2023-10-16T23:37:33.125Z,50266.40
2023-10-16T23:40:02.058Z,50278.80
2023-10-16T23:42:36.447Z,50265.60
2023-10-16T23:45:11.324Z,50252.01
2023-10-16T23:47:46.077Z,50273.60
2023-10-16T23:50:17.171Z,50266.80
2023-10-16T23:52:59.587Z,50281.60
2023-10-16T23:55:33.080Z,50275.59
2023-10-16T23:58:06.066Z,50276.40
